KEST/EST METAR and TAF weather

Enter ICAO airport designator
Station Type Date Time Source
KEST METAR 2020/06/03 15:52 UTC NOAA

KEST 031552Z AUTO 36004KT 10SM CLR 26/13 A2991 RMK AO2 SLP120 T02560128


Station Type Date Time Source
KEST Decoded METAR 2020/06/03 15:52 UTC NOAA

ESTHERVILLE MUNICIPAL AIRPORT , IA, United States (KEST) 43-24N 94-45W 401M
Jun 03, 2020 - 11:52 AM EDT / 2020.06.03 1552 UTC
Wind: from the N (360 degrees) at 5 MPH (4 KT):0
Visibility: 10 mile(s):0
Sky conditions: clear
Temperature: 78.1 F (25.6 C)
Dew Point: 55.0 F (12.8 C)
Relative Humidity: 45%
Pressure (altimeter): 29.91 in. Hg (1012 hPa)
ob: KEST 031552Z AUTO 36004KT 10SM CLR 26/13 A2991 RMK AO2 SLP120 T02560128
cycle: 16

Station Type Date Time Source
KEST TAF UTC NOAA

Error!

Example: see airport list